Time;durP1;ratioP1;P1;durP2;ratioP2;P2;SDS_P1;SDS_P2;PMS_P1;PMS_P2;Temp;Humidity;BMP_temperature;BMP_pressure;BME280_temperature;BME280_humidity;BME280_pressure;Samples;Min_cycle;Max_cycle;Signal;HPM_P1;HPM_P2
2022/09/27 00:00:11;;;;;;;1.13;1.00;;;;;;;10.06;100.00;99025.75;6271962;28;20041;-78
2022/09/27 00:03:14;;;;;;;1.58;1.08;;;;;;;10.07;100.00;99032.66;6272292;28;20049;-78
2022/09/27 00:06:20;;;;;;;1.13;0.93;;;;;;;10.07;100.00;99019.53;6273534;28;20049;-78
2022/09/27 00:09:21;;;;;;;1.63;1.10;;;;;;;10.08;100.00;99024.69;6273355;28;20052;-77
2022/09/27 00:12:22;;;;;;;1.10;1.00;;;;;;;10.08;100.00;99022.06;6272826;28;20049;-78
2022/09/27 00:15:24;;;;;;;2.08;1.33;;;;;;;10.08;100.00;99023.81;6273076;28;20076;-77
2022/09/27 00:18:27;;;;;;;1.38;0.90;;;;;;;10.09;100.00;99022.91;6270131;28;20049;-77
2022/09/27 00:21:29;;;;;;;1.23;1.13;;;;;;;10.09;100.00;99021.09;6270464;28;20055;-77
2022/09/27 00:24:31;;;;;;;1.65;1.05;;;;;;;10.11;100.00;99026.22;6271277;28;20077;-78
2022/09/27 00:27:33;;;;;;;7.20;1.58;;;;;;;10.13;100.00;99012.03;6272035;28;20048;-78
2022/09/27 00:30:34;;;;;;;1.77;1.10;;;;;;;10.14;100.00;99002.38;6271836;28;20053;-78
2022/09/27 00:33:37;;;;;;;1.40;1.15;;;;;;;10.16;100.00;99009.13;6271211;28;20052;-78
2022/09/27 00:36:38;;;;;;;1.63;1.30;;;;;;;10.14;100.00;99005.00;6269220;28;20053;-77
2022/09/27 00:39:40;;;;;;;1.30;1.20;;;;;;;10.17;100.00;98999.47;6269721;28;20052;-77
2022/09/27 00:42:41;;;;;;;2.30;1.70;;;;;;;10.18;100.00;99003.78;6271031;28;20079;-78
2022/09/27 00:45:47;;;;;;;2.22;1.95;;;;;;;10.16;100.00;99000.44;6269867;28;20122;-77
2022/09/27 00:49:00;;;;;;;2.40;1.75;;;;;;;10.16;100.00;99008.31;6271311;28;20049;-77
2022/09/27 00:52:05;;;;;;;6.43;1.85;;;;;;;10.18;100.00;99000.34;6269331;28;20050;-78
2022/09/27 00:55:11;;;;;;;4.82;2.45;;;;;;;10.15;100.00;99001.41;6267891;28;20050;-78
2022/09/27 00:58:15;;;;;;;2.22;1.95;;;;;;;10.20;100.00;99006.28;6268692;28;20060;-77
2022/09/27 01:01:17;;;;;;;3.75;2.40;;;;;;;10.19;100.00;98999.38;6267524;28;20045;-78
2022/09/27 01:04:24;;;;;;;3.42;2.35;;;;;;;10.19;100.00;98988.88;6266804;28;20045;-77
2022/09/27 01:07:25;;;;;;;3.85;2.72;;;;;;;10.17;100.00;98994.22;6268356;28;20064;-78
2022/09/27 01:10:32;;;;;;;4.68;3.08;;;;;;;10.15;100.00;98991.72;6265359;28;20049;-78
2022/09/27 01:13:43;;;;;;;3.05;2.58;;;;;;;10.15;100.00;98989.09;6266337;28;20101;-78
2022/09/27 01:16:51;;;;;;;3.80;2.92;;;;;;;10.18;100.00;98995.91;6265263;28;20065;-77
2022/09/27 01:20:19;;;;;;;3.63;2.95;;;;;;;10.19;100.00;98989.69;6265571;28;20053;-77
2022/09/27 01:23:38;;;;;;;5.00;3.35;;;;;;;10.18;100.00;98990.66;6265506;28;20136;-77
2022/09/27 01:27:07;;;;;;;5.30;3.10;;;;;;;10.21;100.00;98997.44;6265392;28;20139;-77
2022/09/27 01:30:18;;;;;;;4.53;3.25;;;;;;;10.18;100.00;98995.09;6267239;28;20053;-77
2022/09/27 01:33:38;;;;;;;5.63;3.90;;;;;;;10.19;100.00;98988.88;6268703;28;20050;-77
2022/09/27 01:36:51;;;;;;;5.22;3.88;;;;;;;10.19;100.00;98994.13;6268472;28;20053;-77
2022/09/27 01:39:59;;;;;;;7.35;4.57;;;;;;;10.18;100.00;98988.03;6270741;28;20057;-77
2022/09/27 01:43:09;;;;;;;7.73;4.07;;;;;;;10.21;100.00;98989.56;6267799;28;20072;-78
2022/09/27 01:46:19;;;;;;;4.05;2.83;;;;;;;10.22;100.00;98989.47;6269038;28;20971;-78
2022/09/27 01:49:26;;;;;;;7.47;4.45;;;;;;;10.12;100.00;98972.75;6258179;28;20060;-79
2022/09/27 01:52:34;;;;;;;7.68;4.22;;;;;;;10.11;100.00;98986.84;6264036;28;20045;-78
2022/09/27 01:55:38;;;;;;;5.53;3.92;;;;;;;10.13;100.00;98975.28;6264405;28;20095;-78
2022/09/27 01:58:47;;;;;;;5.43;3.60;;;;;;;10.10;100.00;98975.53;6259962;28;20053;-78
2022/09/27 02:01:52;;;;;;;6.65;3.97;;;;;;;10.09;100.00;98971.22;6271172;28;20053;-77
2022/09/27 02:04:56;;;;;;;5.57;3.67;;;;;;;10.19;100.00;98981.00;6266546;28;20053;-78
2022/09/27 02:08:02;;;;;;;5.18;3.50;;;;;;;10.18;100.00;98974.09;6268827;28;20049;-78
2022/09/27 02:11:09;;;;;;;7.35;4.10;;;;;;;10.13;100.00;98974.44;6264967;28;20046;-78
2022/09/27 02:14:15;;;;;;;6.55;4.13;;;;;;;10.15;100.00;98978.59;6267980;28;20045;-79
2022/09/27 02:17:25;;;;;;;6.18;4.00;;;;;;;10.16;100.00;98966.31;6267312;28;20045;-78
2022/09/27 02:20:30;;;;;;;8.20;4.95;;;;;;;10.15;100.00;98967.28;6264094;28;20046;-78
2022/09/27 02:23:39;;;;;;;5.00;3.78;;;;;;;10.20;100.00;98967.75;6265358;28;20380;-78
2022/09/27 02:26:45;;;;;;;6.57;4.10;;;;;;;10.22;100.00;98965.84;6268424;28;20056;-78
2022/09/27 02:29:52;;;;;;;7.38;4.38;;;;;;;10.21;100.00;98973.81;6260833;28;20076;-78
2022/09/27 02:32:55;;;;;;;7.07;4.88;;;;;;;10.24;100.00;98965.72;6261520;28;20050;-78
2022/09/27 02:35:56;;;;;;;7.40;3.85;;;;;;;10.25;100.00;98975.28;6262200;28;20076;-78
2022/09/27 02:38:59;;;;;;;10.20;4.40;;;;;;;10.26;100.00;98975.13;6253697;28;20060;-78
2022/09/27 02:42:00;;;;;;;6.43;4.55;;;;;;;10.24;100.00;98976.22;6251724;28;20084;-78
2022/09/27 02:45:04;;;;;;;13.10;5.63;;;;;;;10.20;100.00;98970.38;6254010;28;20520;-78
2022/09/27 02:48:19;;;;;;;9.90;5.40;;;;;;;10.23;100.00;98975.38;6253455;28;20123;-78
2022/09/27 02:51:32;;;;;;;10.73;5.07;;;;;;;10.23;100.00;98977.16;6256354;28;20433;-78
2022/09/27 02:54:44;;;;;;;10.30;6.05;;;;;;;10.21;100.00;98972.03;6266592;28;20068;-78
2022/09/27 02:58:02;;;;;;;9.88;5.70;;;;;;;10.16;100.00;98967.16;6261080;28;20064;-78
2022/09/27 03:01:08;;;;;;;8.88;5.00;;;;;;;10.17;100.00;98970.59;6266359;28;20049;-77
2022/09/27 03:04:19;;;;;;;9.38;4.78;;;;;;;10.25;100.00;98980.53;6262250;28;20045;-78
2022/09/27 03:07:22;;;;;;;5.00;3.05;;;;;;;10.05;100.00;98976.84;6259581;28;20049;-77
2022/09/27 03:10:26;;;;;;;5.20;3.75;;;;;;;10.10;100.00;98975.53;6261440;28;20053;-77
2022/09/27 03:13:27;;;;;;;6.75;3.20;;;;;;;10.09;100.00;98971.22;6260452;28;20045;-77
2022/09/27 03:16:29;;;;;;;4.35;2.90;;;;;;;10.04;100.00;98968.16;6261722;28;20045;-77
2022/09/27 03:19:31;;;;;;;4.72;2.92;;;;;;;10.07;100.00;98969.66;6263168;28;20049;-77
2022/09/27 03:22:33;;;;;;;5.05;2.90;;;;;;;10.11;100.00;98971.09;6258847;28;20049;-77
2022/09/27 03:25:34;;;;;;;6.55;2.30;;;;;;;10.07;100.00;98978.38;6254579;28;20045;-77
2022/09/27 03:28:36;;;;;;;11.88;2.65;;;;;;;10.06;100.00;98975.88;6254292;28;20054;-78
2022/09/27 03:31:37;;;;;;;4.82;2.20;;;;;;;10.06;100.00;98981.13;6252443;28;20060;-78
2022/09/27 03:34:40;;;;;;;5.00;2.80;;;;;;;10.06;100.00;98981.97;6250289;28;20045;-78
2022/09/27 03:37:41;;;;;;;4.63;2.35;;;;;;;10.04;100.00;98972.56;6252867;28;20394;-78
2022/09/27 03:40:43;;;;;;;5.20;2.67;;;;;;;9.96;100.00;98977.56;6250818;28;20053;-77
2022/09/27 03:43:44;;;;;;;2.40;1.83;;;;;;;10.00;100.00;98981.63;6252243;28;20049;-78
2022/09/27 03:46:45;;;;;;;5.75;2.25;;;;;;;10.01;100.00;98975.41;6255434;28;20072;-78
2022/09/27 03:49:48;;;;;;;4.30;2.55;;;;;;;9.98;100.00;98975.66;6254297;28;20049;-78
2022/09/27 03:52:49;;;;;;;4.50;2.40;;;;;;;9.98;100.00;98986.16;6250776;28;20045;-78
2022/09/27 03:55:51;;;;;;;6.68;2.88;;;;;;;9.97;100.00;98980.06;6251738;28;20449;-78
2022/09/27 03:58:52;;;;;;;3.63;2.17;;;;;;;9.91;100.00;98983.19;6249300;28;20493;-78
2022/09/27 04:01:55;;;;;;;4.72;2.55;;;;;;;9.96;100.00;98982.81;6247299;28;20046;-78
2022/09/27 04:04:57;;;;;;;7.30;2.88;;;;;;;9.96;100.00;98988.06;6249739;28;20045;-78
2022/09/27 04:07:59;;;;;;;4.20;2.50;;;;;;;9.96;100.00;98985.44;6243312;28;20131;-78
2022/09/27 04:11:02;;;;;;;5.85;2.38;;;;;;;9.92;100.00;98984.84;6248254;28;20045;-78
2022/09/27 04:14:04;;;;;;;6.05;2.47;;;;;;;9.90;100.00;98992.00;6249785;28;20124;-78
2022/09/27 04:17:05;;;;;;;3.53;2.20;;;;;;;9.91;100.00;98981.41;6251498;28;20482;-78
2022/09/27 04:20:09;;;;;;;5.38;2.70;;;;;;;9.95;100.00;98984.63;6250969;28;20049;-78
2022/09/27 04:23:11;;;;;;;6.22;2.80;;;;;;;9.92;100.00;98982.22;6255739;28;20545;-77
2022/09/27 04:26:12;;;;;;;8.52;2.90;;;;;;;9.95;100.00;98989.00;6247868;28;20049;-78
2022/09/27 04:29:14;;;;;;;6.45;2.67;;;;;;;9.90;100.00;98986.75;6248684;28;20063;-76
2022/09/27 04:32:16;;;;;;;5.90;3.13;;;;;;;9.87;100.00;98990.47;6249275;28;20057;-79
2022/09/27 04:38:38;;;;;;;9.38;3.15;;;;;;;9.83;100.00;98990.81;6248712;28;20049;-78
2022/09/27 04:41:39;;;;;;;5.05;3.03;;;;;;;9.87;100.00;98994.88;6247882;28;20049;-78
2022/09/27 04:44:41;;;;;;;8.45;2.47;;;;;;;9.87;100.00;99005.38;6253228;23;20046;-73
2022/09/27 04:47:43;;;;;;;5.40;2.42;;;;;;;9.85;100.00;99004.63;6221643;28;20425;-72
2022/09/27 04:50:46;;;;;;;7.35;2.35;;;;;;;9.88;100.00;99012.28;6221580;28;20136;-72
2022/09/27 04:53:47;;;;;;;4.70;1.80;;;;;;;9.85;100.00;99000.22;6202637;28;20050;-74
2022/09/27 04:56:49;;;;;;;4.53;2.70;;;;;;;9.80;100.00;99005.00;6197562;28;20050;-74
2022/09/27 04:59:50;;;;;;;3.78;2.45;;;;;;;9.85;100.00;99009.88;6197820;28;20052;-74
2022/09/27 05:02:51;;;;;;;6.07;3.00;;;;;;;9.81;100.00;99006.69;6197598;28;20061;-73
2022/09/27 05:05:54;;;;;;;4.63;2.65;;;;;;;9.81;100.00;99016.31;6197096;28;20549;-73
2022/09/27 05:08:57;;;;;;;6.88;3.20;;;;;;;9.79;100.00;99013.84;6197591;28;20046;-73
2022/09/27 05:11:58;;;;;;;4.03;2.47;;;;;;;9.78;100.00;99017.41;6201977;28;20057;-73
2022/09/27 05:14:59;;;;;;;3.15;2.10;;;;;;;9.79;100.00;99021.69;6201679;28;20067;-73
2022/09/27 05:18:01;;;;;;;3.95;2.38;;;;;;;9.75;100.00;99027.31;6202252;28;20057;-74
2022/09/27 05:21:03;;;;;;;6.80;2.53;;;;;;;9.78;100.00;99029.69;6206726;28;20406;-73
2022/09/27 05:24:05;;;;;;;3.22;2.20;;;;;;;9.70;100.00;99027.66;6225923;28;20048;-73
2022/09/27 05:27:08;;;;;;;2.83;1.92;;;;;;;9.69;100.00;99030.41;6226442;28;20058;-72
2022/09/27 05:30:10;;;;;;;2.70;2.05;;;;;;;9.62;100.00;99033.50;6225830;28;20050;-74
2022/09/27 05:33:12;;;;;;;7.47;2.60;;;;;;;9.66;100.00;99032.31;6226029;28;20042;-74
2022/09/27 05:36:15;;;;;;;5.45;2.03;;;;;;;9.69;100.00;99035.66;6225814;28;20493;-73
2022/09/27 05:39:17;;;;;;;4.95;2.45;;;;;;;9.70;100.00;99040.78;6226076;28;20490;-73
2022/09/27 05:42:18;;;;;;;6.03;2.53;;;;;;;9.68;100.00;99049.72;6225661;28;20057;-73
2022/09/27 05:45:21;;;;;;;9.10;2.58;;;;;;;9.58;100.00;99050.44;6225210;28;20395;-73
2022/09/27 05:48:23;;;;;;;4.75;1.98;;;;;;;9.57;100.00;99050.53;6226131;28;20489;-73
2022/09/27 05:51:25;;;;;;;5.40;2.25;;;;;;;9.59;100.00;99049.47;6225377;28;20057;-73
2022/09/27 05:54:28;;;;;;;8.77;1.95;;;;;;;9.58;100.00;99050.44;6225123;28;20042;-74
2022/09/27 05:57:29;;;;;;;3.38;1.92;;;;;;;9.52;100.00;99056.13;6225608;28;20050;-73
2022/09/27 06:00:32;;;;;;;7.78;2.70;;;;;;;9.58;100.00;99055.69;6225352;28;20046;-72
2022/09/27 06:03:33;;;;;;;5.90;2.20;;;;;;;9.55;100.00;99055.91;6225292;28;20053;-74
2022/09/27 06:06:37;;;;;;;6.60;2.90;;;;;;;9.59;100.00;99054.72;6225023;28;20058;-74
2022/09/27 06:09:38;;;;;;;3.05;1.98;;;;;;;9.59;100.00;99059.97;6225160;28;20057;-73
2022/09/27 06:12:40;;;;;;;10.77;2.65;;;;;;;9.58;100.00;99060.94;6224884;28;20054;-72
2022/09/27 06:15:44;;;;;;;2.45;2.03;;;;;;;9.58;100.00;99058.31;6224836;28;20053;-74
2022/09/27 06:18:45;;;;;;;2.95;2.08;;;;;;;9.61;100.00;99063.28;6225031;28;20054;-73
2022/09/27 06:21:50;;;;;;;3.10;2.10;;;;;;;9.61;100.00;99058.06;6224166;28;20061;-72
2022/09/27 06:24:51;;;;;;;3.42;2.15;;;;;;;9.59;100.00;99061.75;6224669;28;20099;-73
2022/09/27 06:27:53;;;;;;;8.57;1.92;;;;;;;9.66;100.00;99058.53;6224920;28;20057;-73
2022/09/27 06:30:55;;;;;;;2.03;1.80;;;;;;;9.61;100.00;99065.91;6224347;28;20518;-73
2022/09/27 06:33:56;;;;;;;3.65;2.05;;;;;;;9.65;100.00;99063.91;6224146;28;20046;-72
2022/09/27 06:36:59;;;;;;;3.03;1.65;;;;;;;9.64;100.00;99068.31;6224708;28;20056;-73
2022/09/27 06:40:01;;;;;;;6.50;1.83;;;;;;;9.66;100.00;99071.66;6224076;28;20465;-72
2022/09/27 06:43:03;;;;;;;3.65;1.77;;;;;;;9.76;100.00;99076.19;6224297;28;20066;-73
2022/09/27 06:46:05;;;;;;;5.25;2.45;;;;;;;9.68;100.00;99076.78;6221007;28;20670;-74
2022/09/27 06:49:06;;;;;;;4.45;2.00;;;;;;;9.73;100.00;99077.28;6213902;28;20054;-73
2022/09/27 06:52:09;;;;;;;5.85;2.22;;;;;;;9.75;100.00;99090.25;6222839;28;20057;-72
2022/09/27 06:55:10;;;;;;;3.28;2.17;;;;;;;9.78;100.00;99093.50;6222839;28;20520;-73
2022/09/27 07:01:31;;;;;;;2.30;1.60;;;;;;;9.76;100.00;99095.38;6222396;28;20046;-73
2022/09/27 07:04:32;;;;;;;6.15;1.85;;;;;;;9.79;100.00;99099.56;6222717;28;20076;-73
2022/09/27 07:07:35;;;;;;;2.38;1.58;;;;;;;9.78;100.00;99111.03;6211283;28;20508;-72
2022/09/27 07:10:37;;;;;;;3.95;1.52;;;;;;;9.77;100.00;99099.69;6223136;28;20053;-73
2022/09/27 07:13:41;;;;;;;2.92;1.48;;;;;;;9.64;100.00;99110.28;6223211;28;20060;-75
2022/09/27 07:16:43;;;;;;;2.40;1.70;;;;;;;9.66;100.00;99115.41;6223783;28;20140;-74
2022/09/27 07:19:45;;;;;;;3.17;1.35;;;;;;;9.66;100.00;99111.00;6216868;28;20049;-75
2022/09/27 07:22:48;;;;;;;5.80;1.27;;;;;;;9.69;100.00;99123.06;6215246;28;20529;-74
2022/09/27 07:25:49;;;;;;;2.67;1.10;;;;;;;9.65;100.00;99127.69;6213372;28;20425;-73
2022/09/27 07:28:52;;;;;;;5.35;1.08;;;;;;;9.62;100.00;99129.69;6216655;28;20133;-74
2022/09/27 07:31:53;;;;;;;1.40;1.30;;;;;;;9.61;100.00;99130.66;6215108;28;20052;-74
2022/09/27 07:34:54;;;;;;;2.55;1.13;;;;;;;9.58;100.00;99136.97;6211317;28;20041;-74
2022/09/27 07:37:58;;;;;;;2.00;1.42;;;;;;;9.59;100.00;99140.44;6221797;28;20057;-74
2022/09/27 07:41:04;;;;;;;2.22;1.50;;;;;;;9.59;100.00;99145.69;6222778;28;20858;-74
2022/09/27 07:44:06;;;;;;;2.13;1.30;;;;;;;9.57;100.00;99150.19;6216836;28;20049;-74
2022/09/27 07:47:09;;;;;;;1.67;1.35;;;;;;;9.60;100.00;99153.44;6223300;28;20164;-75
2022/09/27 07:50:11;;;;;;;3.53;1.90;;;;;;;9.53;100.00;99157.44;6222547;28;20045;-74
2022/09/27 07:53:13;;;;;;;1.95;1.02;;;;;;;9.62;100.00;99163.78;6205470;28;20054;-74
2022/09/27 07:56:15;;;;;;;1.02;0.85;;;;;;;9.57;100.00;99179.03;6222481;28;20196;-74
2022/09/27 07:59:17;;;;;;;2.47;0.75;;;;;;;9.53;100.00;99177.59;6199095;28;20054;-74
2022/09/27 08:02:18;;;;;;;9.68;1.25;;;;;;;9.58;100.00;99181.56;6229616;28;20046;-73
2022/09/27 08:05:19;;;;;;;1.55;0.90;;;;;;;9.49;100.00;99178.75;6233786;28;20053;-74
2022/09/27 08:08:23;;;;;;;2.25;0.90;;;;;;;9.50;100.00;99188.31;6226094;28;20045;-74
2022/09/27 08:11:24;;;;;;;3.20;1.20;;;;;;;9.52;100.00;99186.41;6227615;28;20049;-75
2022/09/27 08:14:25;;;;;;;1.42;0.93;;;;;;;9.62;100.00;99190.03;6214015;28;20053;-74
2022/09/27 08:17:27;;;;;;;0.70;0.70;;;;;;;9.56;100.00;99185.25;6222372;28;20057;-74
2022/09/27 08:20:29;;;;;;;2.35;1.00;;;;;;;9.68;100.00;99183.50;6222265;28;20085;-74
2022/09/27 08:23:32;;;;;;;0.90;0.77;;;;;;;9.73;100.00;99189.25;6222210;28;20417;-73
2022/09/27 08:26:33;;;;;;;2.35;0.95;;;;;;;9.82;100.00;99199.88;6221759;28;20057;-72
2022/09/27 08:29:35;;;;;;;2.40;0.90;;;;;;;9.86;100.00;99200.50;6221884;28;20398;-72
2022/09/27 08:32:37;;;;;;;1.15;0.77;;;;;;;9.94;100.00;99205.97;6221852;28;20057;-72
2022/09/27 08:35:38;;;;;;;2.78;1.25;;;;;;;9.85;100.00;99212.75;6221851;28;20061;-72
2022/09/27 08:38:41;;;;;;;1.88;0.70;;;;;;;9.85;100.00;99212.75;6222139;28;20053;-72
2022/09/27 08:41:50;;;;;;;1.55;0.68;;;;;;;9.93;100.00;99213.97;6204865;28;20054;-73
2022/09/27 08:45:01;;;;;;;0.60;0.60;;;;;;;10.01;100.00;99211.59;6222994;28;20045;-72
2022/09/27 08:48:05;;;;;;;0.47;0.47;;;;;;;10.00;100.00;99218.66;6230164;28;20053;-73
2022/09/27 08:51:13;;;;;;;2.72;1.50;;;;;;;10.06;100.00;99215.56;6229777;28;20565;-73
2022/09/27 08:54:20;;;;;;;2.90;0.52;;;;;;;10.07;100.00;99227.72;6229876;28;20623;-73
2022/09/27 08:57:24;;;;;;;0.63;0.63;;;;;;;10.13;100.00;99231.69;6229879;28;20054;-74
2022/09/27 09:00:27;;;;;;;0.47;0.47;;;;;;;10.14;100.00;99236.81;6229917;28;20512;-72
2022/09/27 09:03:31;;;;;;;0.40;0.40;;;;;;;10.23;100.00;99237.06;6229804;28;20045;-73
2022/09/27 09:06:40;;;;;;;0.85;0.50;;;;;;;10.26;100.00;99235.06;6229610;28;20516;-72
2022/09/27 09:09:52;;;;;;;1.92;0.80;;;;;;;10.29;100.00;99242.72;6229537;28;20050;-72
2022/09/27 09:13:00;;;;;;;1.77;0.63;;;;;;;10.26;100.00;99244.72;6229918;28;20052;-73
2022/09/27 09:16:14;;;;;;;3.05;0.85;;;;;;;10.30;100.00;99243.53;6229298;28;20041;-72
2022/09/27 09:19:32;;;;;;;1.10;0.60;;;;;;;10.14;100.00;99242.06;6229911;28;20505;-71
2022/09/27 09:22:50;;;;;;;2.63;0.75;;;;;;;10.23;100.00;99247.56;6229516;28;20061;-72
2022/09/27 09:26:02;;;;;;;0.73;0.60;;;;;;;10.29;100.00;99247.13;6229118;28;20456;-72
2022/09/27 09:29:16;;;;;;;1.67;0.65;;;;;;;10.17;100.00;99248.84;6229390;28;20049;-72
2022/09/27 09:32:30;;;;;;;0.63;0.60;;;;;;;10.23;100.00;99250.19;6229231;28;20049;-73
2022/09/27 09:35:37;;;;;;;1.88;0.90;;;;;;;10.13;100.00;99261.41;6229408;28;20048;-73
2022/09/27 09:38:43;;;;;;;0.70;0.70;;;;;;;10.05;100.00;99250.63;6229515;28;20097;-72
2022/09/27 09:42:03;;;;;;;0.70;0.70;;;;;;;10.17;100.00;99259.34;6229083;28;20050;-72
2022/09/27 09:45:09;;;;;;;1.20;0.70;;;;;;;10.14;100.00;99254.34;6223102;28;20410;-72
2022/09/27 09:48:17;;;;;;;3.30;0.68;;;;;;;10.15;100.00;99263.91;6229691;28;20049;-72
2022/09/27 09:51:23;;;;;;;2.10;0.60;;;;;;;10.26;100.00;99253.44;6229086;28;20045;-72
2022/09/27 09:54:30;;;;;;;0.80;0.70;;;;;;;10.24;100.00;99262.38;6228958;28;20520;-72
2022/09/27 09:57:38;;;;;;;3.72;0.70;;;;;;;10.20;100.00;99255.66;6224952;28;20057;-73
2022/09/27 10:00:41;;;;;;;3.05;0.85;;;;;;;10.24;100.00;99262.38;6225194;28;20046;-71
2022/09/27 10:03:43;;;;;;;1.10;0.63;;;;;;;10.26;100.00;99266.56;6225017;28;20046;-72
2022/09/27 10:06:44;;;;;;;0.60;0.60;;;;;;;10.04;100.00;99263.88;6225230;28;20045;-71
2022/09/27 10:09:46;;;;;;;1.17;0.73;;;;;;;10.15;100.00;99258.66;6225156;28;20045;-72
2022/09/27 10:12:49;;;;;;;0.65;0.50;;;;;;;10.18;100.00;99257.59;6225001;28;20560;-73
2022/09/27 10:15:59;;;;;;;1.17;0.80;;;;;;;10.24;100.00;99263.22;6225146;28;20045;-72
2022/09/27 10:19:02;;;;;;;1.80;0.80;;;;;;;10.28;100.00;99258.59;6225124;28;20054;-72
2022/09/27 10:22:16;;;;;;;2.28;0.90;;;;;;;10.30;100.00;99260.13;6224830;28;20053;-72
2022/09/27 10:25:18;;;;;;;0.95;0.70;;;;;;;10.26;100.00;99266.56;6224087;28;20042;-72
2022/09/27 10:28:31;;;;;;;0.70;0.70;;;;;;;10.34;100.00;99253.69;6224795;28;20054;-72
2022/09/27 10:31:37;;;;;;;0.40;0.40;;;;;;;10.29;100.00;99257.63;6215930;28;20057;-72
2022/09/27 10:34:41;;;;;;;0.57;0.50;;;;;;;10.40;100.00;99257.63;6200056;28;20104;-71
2022/09/27 10:37:44;;;;;;;0.50;0.50;;;;;;;10.32;100.00;99265.28;6200147;28;20054;-72
2022/09/27 10:40:45;;;;;;;0.40;0.40;;;;;;;10.40;100.00;99261.13;6208630;28;20052;-72
2022/09/27 10:43:48;;;;;;;2.28;0.50;;;;;;;10.38;100.00;99265.63;6223715;28;20397;-71
2022/09/27 10:46:53;;;;;;;0.50;0.50;;;;;;;10.43;100.00;99265.28;6224400;28;20057;-72
2022/09/27 10:50:06;;;;;;;0.70;0.50;;;;;;;10.43;100.00;99267.09;6224042;28;20053;-72
2022/09/27 10:53:14;;;;;;;0.88;0.57;;;;;;;10.37;100.00;99278.91;6224234;28;20046;-72
2022/09/27 10:56:22;;;;;;;0.45;0.45;;;;;;;10.37;100.00;99266.59;6223741;28;20060;-72
2022/09/27 10:59:27;;;;;;;1.85;0.50;;;;;;;10.35;100.00;99275.53;6224142;28;20394;-73
2022/09/27 11:02:32;;;;;;;0.75;0.57;;;;;;;10.35;100.00;99265.03;6223696;28;20065;-72
2022/09/27 11:05:36;;;;;;;2.15;0.60;;;;;;;10.40;100.00;99269.00;6223608;28;20042;-73
2022/09/27 11:08:39;;;;;;;0.50;0.50;;;;;;;10.54;100.00;99278.44;6223254;28;20124;-72
2022/09/27 11:11:44;;;;;;;2.85;0.80;;;;;;;10.48;100.00;99273.66;6223364;28;20050;-72
2022/09/27 11:14:54;;;;;;;1.60;0.60;;;;;;;10.53;100.00;99281.19;6223087;28;20050;-72
2022/09/27 11:18:02;;;;;;;3.55;0.82;;;;;;;10.50;100.00;99269.13;6223600;28;20596;-73
2022/09/27 11:21:13;;;;;;;2.42;0.90;;;;;;;10.50;100.00;99278.81;6223471;28;20494;-73
2022/09/27 11:24:30;;;;;;;1.52;0.90;;;;;;;10.45;100.00;99284.41;6222992;28;20410;-73
2022/09/27 11:27:44;;;;;;;4.93;0.60;;;;;;;10.38;100.00;99286.66;6223254;28;20053;-72
2022/09/27 11:30:56;;;;;;;1.23;0.90;;;;;;;10.41;100.00;99291.69;6223128;28;20060;-72
2022/09/27 11:34:14;;;;;;;3.65;0.70;;;;;;;10.39;100.00;99287.47;6222605;28;20050;-72
2022/09/27 11:37:26;;;;;;;4.17;1.40;;;;;;;10.43;100.00;99288.09;6223423;28;20054;-74
2022/09/27 11:40:35;;;;;;;2.53;0.77;;;;;;;10.39;100.00;99287.47;6223001;28;20660;-72
2022/09/27 11:43:52;;;;;;;6.72;0.88;;;;;;;10.39;100.00;99285.69;6210477;28;20076;-73
2022/09/27 11:47:03;;;;;;;0.43;0.40;;;;;;;10.33;100.00;99278.28;6198954;28;20061;-73
2022/09/27 11:50:25;;;;;;;0.38;0.38;;;;;;;10.38;100.00;99283.19;6198160;28;20081;-72
2022/09/27 11:53:48;;;;;;;1.42;0.73;;;;;;;10.39;100.00;99287.47;6226955;28;20061;-71
2022/09/27 11:56:59;;;;;;;0.80;0.40;;;;;;;10.40;100.00;99279.50;6229904;28;20050;-72
2022/09/27 12:00:14;;;;;;;1.30;0.65;;;;;;;10.39;100.00;99279.59;6229224;28;20034;-71
2022/09/27 12:03:43;;;;;;;1.70;0.70;;;;;;;10.39;100.00;99285.69;6201753;28;20058;-72
2022/09/27 12:06:54;;;;;;;2.88;0.95;;;;;;;10.41;100.00;99273.28;6198834;28;20046;-73
2022/09/27 12:10:00;;;;;;;1.10;0.70;;;;;;;10.48;100.00;99280.69;6231360;28;20059;-73
2022/09/27 12:13:03;;;;;;;0.75;0.70;;;;;;;10.49;100.00;99277.97;6247035;28;20410;-74
2022/09/27 12:16:05;;;;;;;2.42;0.80;;;;;;;10.54;100.00;99286.34;6246921;28;20045;-73
2022/09/27 12:19:17;;;;;;;1.83;0.77;;;;;;;10.61;100.00;99278.81;6246275;28;20053;-74
2022/09/27 12:22:23;;;;;;;2.00;0.75;;;;;;;10.66;100.00;99285.38;6246711;28;20054;-74
2022/09/27 12:25:29;;;;;;;2.35;0.85;;;;;;;10.72;100.00;99289.34;6246060;28;20045;-74
2022/09/27 12:28:39;;;;;;;2.40;1.52;;;;;;;10.71;100.00;99282.38;6235301;28;20480;-74
2022/09/27 12:31:44;;;;;;;4.20;1.27;;;;;;;10.75;100.00;99288.25;6221844;28;20601;-74
2022/09/27 12:34:54;;;;;;;2.95;0.80;;;;;;;10.73;100.00;99291.00;6222135;28;20053;-75
2022/09/27 12:38:02;;;;;;;1.95;1.20;;;;;;;10.78;100.00;99296.72;6222478;28;20068;-74
2022/09/27 12:41:07;;;;;;;0.82;0.75;;;;;;;10.91;100.00;99299.25;6221708;28;20425;-77
2022/09/27 12:44:10;;;;;;;4.15;0.80;;;;;;;10.91;100.00;99301.88;6204865;28;20050;-74
2022/09/27 12:47:24;;;;;;;2.97;0.73;;;;;;;10.85;100.00;99299.72;6197502;28;20086;-74
2022/09/27 12:50:35;;;;;;;2.15;1.02;;;;;;;10.83;100.00;99297.22;6197495;28;20054;-74
2022/09/27 12:53:53;;;;;;;1.50;0.98;;;;;;;10.85;100.00;99297.91;6197660;28;20061;-74
2022/09/27 12:57:02;;;;;;;2.25;0.95;;;;;;;10.80;100.00;99296.59;6197846;28;20098;-74
2022/09/27 13:00:11;;;;;;;3.58;0.98;;;;;;;10.83;100.00;99306.88;6197257;28;20494;-74
2022/09/27 13:03:31;;;;;;;2.53;0.55;;;;;;;10.80;100.00;99299.22;6197473;28;20169;-74
2022/09/27 13:06:52;;;;;;;0.50;0.47;;;;;;;10.82;100.00;99303.44;6197306;28;20073;-74
2022/09/27 13:10:25;;;;;;;0.50;0.50;;;;;;;10.72;100.00;99304.22;6214332;28;20058;-73
2022/09/27 13:13:28;;;;;;;4.10;0.75;;;;;;;10.71;100.00;99306.03;6246289;28;20111;-74
2022/09/27 13:16:30;;;;;;;3.40;2.00;;;;;;;10.70;100.00;99307.00;6245786;28;20563;-74
2022/09/27 13:19:42;;;;;;;0.70;0.70;;;;;;;10.69;100.00;99307.13;6236147;28;20060;-73
2022/09/27 13:22:45;;;;;;;0.45;0.43;;;;;;;10.62;100.00;99307.56;6229666;28;20152;-73
2022/09/27 13:25:50;;;;;;;1.02;0.63;;;;;;;10.57;100.00;99312.34;6231972;28;20045;-74
2022/09/27 13:29:00;;;;;;;1.23;0.57;;;;;;;10.56;100.00;99310.69;6223133;28;20061;-75
2022/09/27 13:32:22;;;;;;;1.73;0.60;;;;;;;10.51;100.00;99312.00;6213737;28;20460;-74
2022/09/27 13:35:25;;;;;;;1.88;0.50;;;;;;;10.48;100.00;99331.44;6225822;28;20046;-75
2022/09/27 13:38:28;;;;;;;0.10;0.10;;;;;;;10.23;100.00;99337.66;6225640;28;20054;-74
2022/09/27 13:41:39;;;;;;;0.35;0.25;;;;;;;9.54;100.00;99349.75;6225790;28;20054;-74
2022/09/27 13:44:51;;;;;;;0.30;0.25;;;;;;;9.38;100.00;99342.13;6225342;28;20050;-73
2022/09/27 13:47:55;;;;;;;0.10;0.10;;;;;;;9.08;100.00;99337.22;6213014;28;20053;-73
2022/09/27 13:51:03;;;;;;;0.50;0.30;;;;;;;9.00;100.00;99337.78;6221574;28;20128;-73
2022/09/27 13:54:26;;;;;;;0.68;0.20;;;;;;;8.86;100.00;99333.50;6220643;28;20049;-75
2022/09/27 13:57:51;;;;;;;0.30;0.28;;;;;;;8.97;100.00;99337.16;6232116;28;20054;-73
2022/09/27 14:00:57;;;;;;;0.20;0.20;;;;;;;8.82;100.00;99339.06;6232961;28;20045;-73
2022/09/27 14:04:03;;;;;;;0.35;0.25;;;;;;;8.87;100.00;99326.47;6236865;28;20053;-73
2022/09/27 14:07:05;;;;;;;0.88;0.20;;;;;;;8.87;100.00;99336.97;6233115;28;20053;-73
2022/09/27 14:10:13;;;;;;;0.20;0.20;;;;;;;8.88;100.00;99333.38;6236091;28;20054;-72
2022/09/27 14:13:20;;;;;;;0.55;0.55;;;;;;;8.94;100.00;99334.75;6236689;28;20046;-72
2022/09/27 14:16:21;;;;;;;1.25;0.63;;;;;;;9.03;100.00;99334.94;6231687;28;20042;-73
2022/09/27 14:19:25;;;;;;;1.10;0.55;;;;;;;9.14;100.00;99329.81;6236739;28;20045;-73
2022/09/27 14:22:26;;;;;;;6.18;0.82;;;;;;;9.20;100.00;99340.78;6236643;28;20754;-73
2022/09/27 14:25:28;;;;;;;1.27;0.40;;;;;;;9.27;100.00;99342.06;6238110;28;20057;-73
2022/09/27 14:28:40;;;;;;;0.43;0.40;;;;;;;9.34;100.00;99345.91;6232623;28;20136;-73
2022/09/27 14:31:42;;;;;;;0.93;0.68;;;;;;;9.35;100.00;99344.94;6223633;28;20046;-75
2022/09/27 14:34:43;;;;;;;0.25;0.25;;;;;;;9.33;100.00;99337.19;6215764;28;20061;-72